sensor_id;sensor_type;location;lat;lon;timestamp;P1;durP1;ratioP1;P2;durP2;ratioP2
4359;SDS011;2193;47.980;7.660;2023-02-28T00:02:15;3.07;;;2.83;;
4359;SDS011;2193;47.980;7.660;2023-02-28T00:04:42;3.10;;;2.80;;
4359;SDS011;2193;47.980;7.660;2023-02-28T00:07:07;3.80;;;3.30;;
4359;SDS011;2193;47.980;7.660;2023-02-28T00:09:32;5.00;;;2.90;;
4359;SDS011;2193;47.980;7.660;2023-02-28T00:11:58;4.30;;;3.27;;
4359;SDS011;2193;47.980;7.660;2023-02-28T00:14:23;4.57;;;3.60;;
4359;SDS011;2193;47.980;7.660;2023-02-28T00:16:48;3.67;;;3.17;;
4359;SDS011;2193;47.980;7.660;2023-02-28T00:19:13;4.87;;;3.00;;
4359;SDS011;2193;47.980;7.660;2023-02-28T00:21:39;5.37;;;3.30;;
4359;SDS011;2193;47.980;7.660;2023-02-28T00:24:05;3.50;;;3.20;;
4359;SDS011;2193;47.980;7.660;2023-02-28T00:26:31;8.83;;;3.40;;
4359;SDS011;2193;47.980;7.660;2023-02-28T00:28:56;5.57;;;3.07;;
4359;SDS011;2193;47.980;7.660;2023-02-28T00:31:21;3.93;;;3.53;;
4359;SDS011;2193;47.980;7.660;2023-02-28T00:33:46;4.43;;;3.17;;
4359;SDS011;2193;47.980;7.660;2023-02-28T00:36:11;3.20;;;2.90;;
4359;SDS011;2193;47.980;7.660;2023-02-28T00:38:37;4.63;;;3.60;;
4359;SDS011;2193;47.980;7.660;2023-02-28T00:41:02;4.17;;;3.33;;
4359;SDS011;2193;47.980;7.660;2023-02-28T00:43:29;4.35;;;3.50;;
4359;SDS011;2193;47.980;7.660;2023-02-28T00:45:54;5.53;;;3.50;;
4359;SDS011;2193;47.980;7.660;2023-02-28T00:48:19;5.13;;;3.10;;
4359;SDS011;2193;47.980;7.660;2023-02-28T00:50:45;3.90;;;3.50;;
4359;SDS011;2193;47.980;7.660;2023-02-28T00:53:13;4.70;;;3.30;;
4359;SDS011;2193;47.980;7.660;2023-02-28T00:55:38;3.30;;;3.00;;
4359;SDS011;2193;47.980;7.660;2023-02-28T00:58:03;3.40;;;3.20;;
4359;SDS011;2193;47.980;7.660;2023-02-28T01:00:28;3.63;;;3.03;;
4359;SDS011;2193;47.980;7.660;2023-02-28T01:02:53;3.60;;;3.30;;
4359;SDS011;2193;47.980;7.660;2023-02-28T01:05:18;4.13;;;3.47;;
4359;SDS011;2193;47.980;7.660;2023-02-28T01:07:44;4.80;;;4.00;;
4359;SDS011;2193;47.980;7.660;2023-02-28T01:10:09;3.13;;;2.90;;
4359;SDS011;2193;47.980;7.660;2023-02-28T01:12:34;4.70;;;3.50;;
4359;SDS011;2193;47.980;7.660;2023-02-28T01:15:00;6.90;;;3.20;;
4359;SDS011;2193;47.980;7.660;2023-02-28T01:17:25;4.07;;;3.20;;
4359;SDS011;2193;47.980;7.660;2023-02-28T01:19:52;5.22;;;3.05;;
4359;SDS011;2193;47.980;7.660;2023-02-28T01:22:17;3.58;;;3.28;;
4359;SDS011;2193;47.980;7.660;2023-02-28T01:24:43;4.30;;;3.23;;
4359;SDS011;2193;47.980;7.660;2023-02-28T01:27:08;4.47;;;3.60;;
4359;SDS011;2193;47.980;7.660;2023-02-28T01:29:33;3.60;;;2.93;;
4359;SDS011;2193;47.980;7.660;2023-02-28T01:31:58;4.63;;;3.47;;
4359;SDS011;2193;47.980;7.660;2023-02-28T01:34:24;4.03;;;3.73;;
4359;SDS011;2193;47.980;7.660;2023-02-28T01:36:49;5.60;;;3.47;;
4359;SDS011;2193;47.980;7.660;2023-02-28T01:39:14;4.30;;;3.40;;
4359;SDS011;2193;47.980;7.660;2023-02-28T01:41:40;4.97;;;3.50;;
4359;SDS011;2193;47.980;7.660;2023-02-28T01:44:06;11.73;;;3.33;;
4359;SDS011;2193;47.980;7.660;2023-02-28T01:46:32;3.45;;;3.15;;
4359;SDS011;2193;47.980;7.660;2023-02-28T01:49:06;4.88;;;3.22;;
4359;SDS011;2193;47.980;7.660;2023-02-28T01:51:35;3.80;;;3.45;;
4359;SDS011;2193;47.980;7.660;2023-02-28T01:54:03;4.00;;;3.42;;
4359;SDS011;2193;47.980;7.660;2023-02-28T01:56:30;4.55;;;3.55;;
4359;SDS011;2193;47.980;7.660;2023-02-28T01:58:57;6.05;;;3.92;;
4359;SDS011;2193;47.980;7.660;2023-02-28T02:01:22;4.73;;;3.47;;
4359;SDS011;2193;47.980;7.660;2023-02-28T02:03:49;3.63;;;3.08;;
4359;SDS011;2193;47.980;7.660;2023-02-28T02:06:20;4.00;;;3.50;;
4359;SDS011;2193;47.980;7.660;2023-02-28T02:08:45;3.27;;;2.97;;
4359;SDS011;2193;47.980;7.660;2023-02-28T02:11:10;5.20;;;3.57;;
4359;SDS011;2193;47.980;7.660;2023-02-28T02:21:32;3.60;;;3.30;;
4359;SDS011;2193;47.980;7.660;2023-02-28T02:32:02;5.30;;;3.50;;
4359;SDS011;2193;47.980;7.660;2023-02-28T02:39:48;4.07;;;3.40;;
4359;SDS011;2193;47.980;7.660;2023-02-28T02:42:16;4.45;;;3.50;;
4359;SDS011;2193;47.980;7.660;2023-02-28T02:44:50;4.60;;;3.58;;
4359;SDS011;2193;47.980;7.660;2023-02-28T02:47:19;4.85;;;3.40;;
4359;SDS011;2193;47.980;7.660;2023-02-28T02:52:49;4.55;;;2.95;;
4359;SDS011;2193;47.980;7.660;2023-02-28T02:55:16;6.68;;;3.63;;
4359;SDS011;2193;47.980;7.660;2023-02-28T03:00:07;5.30;;;3.60;;
4359;SDS011;2193;47.980;7.660;2023-02-28T03:02:34;4.70;;;3.10;;
4359;SDS011;2193;47.980;7.660;2023-02-28T03:05:01;4.25;;;3.55;;
4359;SDS011;2193;47.980;7.660;2023-02-28T03:07:28;5.20;;;3.47;;
4359;SDS011;2193;47.980;7.660;2023-02-28T03:09:53;3.53;;;3.23;;
4359;SDS011;2193;47.980;7.660;2023-02-28T03:12:19;3.23;;;3.00;;
4359;SDS011;2193;47.980;7.660;2023-02-28T03:25:05;3.47;;;3.17;;
4359;SDS011;2193;47.980;7.660;2023-02-28T03:27:36;3.97;;;3.03;;
4359;SDS011;2193;47.980;7.660;2023-02-28T03:35:00;4.45;;;3.20;;
4359;SDS011;2193;47.980;7.660;2023-02-28T03:37:29;3.53;;;3.22;;
4359;SDS011;2193;47.980;7.660;2023-02-28T03:39:57;5.45;;;3.65;;
4359;SDS011;2193;47.980;7.660;2023-02-28T03:42:25;4.57;;;3.40;;
4359;SDS011;2193;47.980;7.660;2023-02-28T03:44:53;3.63;;;3.33;;
4359;SDS011;2193;47.980;7.660;2023-02-28T03:47:33;5.95;;;3.20;;
4359;SDS011;2193;47.980;7.660;2023-02-28T03:50:07;6.47;;;3.40;;
4359;SDS011;2193;47.980;7.660;2023-02-28T03:52:37;4.10;;;3.30;;
4359;SDS011;2193;47.980;7.660;2023-02-28T03:55:05;4.78;;;3.13;;
4359;SDS011;2193;47.980;7.660;2023-02-28T04:00:00;4.85;;;3.30;;
4359;SDS011;2193;47.980;7.660;2023-02-28T04:02:29;5.18;;;3.10;;
4359;SDS011;2193;47.980;7.660;2023-02-28T04:04:54;3.17;;;2.97;;
4359;SDS011;2193;47.980;7.660;2023-02-28T04:07:19;5.13;;;3.40;;
4359;SDS011;2193;47.980;7.660;2023-02-28T04:09:45;7.00;;;3.27;;
4359;SDS011;2193;47.980;7.660;2023-02-28T04:12:10;4.53;;;3.47;;
4359;SDS011;2193;47.980;7.660;2023-02-28T04:14:35;5.70;;;3.60;;
4359;SDS011;2193;47.980;7.660;2023-02-28T04:17:01;3.60;;;3.10;;
4359;SDS011;2193;47.980;7.660;2023-02-28T04:19:26;4.33;;;3.47;;
4359;SDS011;2193;47.980;7.660;2023-02-28T04:21:51;4.60;;;3.47;;
4359;SDS011;2193;47.980;7.660;2023-02-28T04:24:20;5.37;;;3.80;;
4359;SDS011;2193;47.980;7.660;2023-02-28T04:26:47;4.10;;;3.70;;
4359;SDS011;2193;47.980;7.660;2023-02-28T04:29:13;4.78;;;3.60;;
4359;SDS011;2193;47.980;7.660;2023-02-28T04:31:38;3.88;;;3.30;;
4359;SDS011;2193;47.980;7.660;2023-02-28T04:34:04;5.37;;;4.00;;
4359;SDS011;2193;47.980;7.660;2023-02-28T04:36:29;3.83;;;3.43;;
4359;SDS011;2193;47.980;7.660;2023-02-28T04:38:54;6.33;;;3.20;;
4359;SDS011;2193;47.980;7.660;2023-02-28T04:41:20;4.37;;;3.70;;
4359;SDS011;2193;47.980;7.660;2023-02-28T04:43:45;6.17;;;3.90;;
4359;SDS011;2193;47.980;7.660;2023-02-28T04:46:10;6.43;;;3.70;;
4359;SDS011;2193;47.980;7.660;2023-02-28T04:48:37;3.77;;;3.33;;
4359;SDS011;2193;47.980;7.660;2023-02-28T04:51:10;3.60;;;3.30;;
4359;SDS011;2193;47.980;7.660;2023-02-28T04:53:36;3.80;;;3.20;;
4359;SDS011;2193;47.980;7.660;2023-02-28T04:56:02;4.60;;;4.05;;
4359;SDS011;2193;47.980;7.660;2023-02-28T04:58:27;4.40;;;3.53;;
4359;SDS011;2193;47.980;7.660;2023-02-28T05:00:53;5.57;;;4.00;;
4359;SDS011;2193;47.980;7.660;2023-02-28T05:03:18;5.07;;;3.73;;
4359;SDS011;2193;47.980;7.660;2023-02-28T05:05:43;4.80;;;3.70;;
4359;SDS011;2193;47.980;7.660;2023-02-28T05:08:09;3.90;;;3.50;;
4359;SDS011;2193;47.980;7.660;2023-02-28T05:10:34;7.83;;;4.10;;
4359;SDS011;2193;47.980;7.660;2023-02-28T05:13:00;4.70;;;4.20;;
4359;SDS011;2193;47.980;7.660;2023-02-28T05:15:25;4.90;;;4.00;;
4359;SDS011;2193;47.980;7.660;2023-02-28T05:17:50;5.10;;;3.67;;
4359;SDS011;2193;47.980;7.660;2023-02-28T05:20:15;4.97;;;4.20;;
4359;SDS011;2193;47.980;7.660;2023-02-28T05:22:40;6.97;;;4.57;;
4359;SDS011;2193;47.980;7.660;2023-02-28T05:25:06;4.70;;;4.00;;
4359;SDS011;2193;47.980;7.660;2023-02-28T05:27:31;7.07;;;4.07;;
4359;SDS011;2193;47.980;7.660;2023-02-28T05:29:57;4.93;;;3.90;;
4359;SDS011;2193;47.980;7.660;2023-02-28T05:32:22;5.10;;;3.87;;
4359;SDS011;2193;47.980;7.660;2023-02-28T05:34:47;4.77;;;4.00;;
4359;SDS011;2193;47.980;7.660;2023-02-28T05:37:13;6.50;;;4.17;;
4359;SDS011;2193;47.980;7.660;2023-02-28T05:39:38;4.37;;;3.80;;
4359;SDS011;2193;47.980;7.660;2023-02-28T05:42:04;6.30;;;4.50;;
4359;SDS011;2193;47.980;7.660;2023-02-28T05:44:29;5.43;;;4.17;;
4359;SDS011;2193;47.980;7.660;2023-02-28T05:46:54;6.40;;;4.33;;
4359;SDS011;2193;47.980;7.660;2023-02-28T05:49:19;4.90;;;4.20;;
4359;SDS011;2193;47.980;7.660;2023-02-28T05:51:45;5.10;;;4.60;;
4359;SDS011;2193;47.980;7.660;2023-02-28T05:54:10;4.67;;;4.13;;
4359;SDS011;2193;47.980;7.660;2023-02-28T05:56:35;7.40;;;4.27;;
4359;SDS011;2193;47.980;7.660;2023-02-28T05:59:02;6.72;;;5.03;;
4359;SDS011;2193;47.980;7.660;2023-02-28T06:01:35;5.37;;;4.60;;
4359;SDS011;2193;47.980;7.660;2023-02-28T06:04:01;5.28;;;4.38;;
4359;SDS011;2193;47.980;7.660;2023-02-28T06:06:26;7.43;;;4.77;;
4359;SDS011;2193;47.980;7.660;2023-02-28T06:08:52;7.20;;;4.40;;
4359;SDS011;2193;47.980;7.660;2023-02-28T06:11:17;6.77;;;4.57;;
4359;SDS011;2193;47.980;7.660;2023-02-28T06:13:44;5.15;;;4.03;;
4359;SDS011;2193;47.980;7.660;2023-02-28T06:16:10;7.33;;;4.53;;
4359;SDS011;2193;47.980;7.660;2023-02-28T06:18:35;7.70;;;4.60;;
4359;SDS011;2193;47.980;7.660;2023-02-28T06:21:00;8.03;;;4.70;;
4359;SDS011;2193;47.980;7.660;2023-02-28T06:23:26;8.20;;;5.07;;
4359;SDS011;2193;47.980;7.660;2023-02-28T06:25:51;6.00;;;4.40;;
4359;SDS011;2193;47.980;7.660;2023-02-28T06:28:17;6.05;;;4.78;;
4359;SDS011;2193;47.980;7.660;2023-02-28T06:30:43;5.27;;;4.30;;
4359;SDS011;2193;47.980;7.660;2023-02-28T06:33:08;6.73;;;5.10;;
4359;SDS011;2193;47.980;7.660;2023-02-28T06:35:33;5.90;;;4.60;;
4359;SDS011;2193;47.980;7.660;2023-02-28T06:37:58;6.17;;;4.67;;
4359;SDS011;2193;47.980;7.660;2023-02-28T06:40:23;8.33;;;4.70;;
4359;SDS011;2193;47.980;7.660;2023-02-28T06:42:49;5.17;;;4.40;;
4359;SDS011;2193;47.980;7.660;2023-02-28T06:45:14;8.03;;;4.90;;
4359;SDS011;2193;47.980;7.660;2023-02-28T06:47:40;6.97;;;4.77;;
4359;SDS011;2193;47.980;7.660;2023-02-28T06:50:05;5.43;;;4.40;;
4359;SDS011;2193;47.980;7.660;2023-02-28T06:52:31;8.40;;;5.17;;
4359;SDS011;2193;47.980;7.660;2023-02-28T06:54:56;6.43;;;4.60;;
4359;SDS011;2193;47.980;7.660;2023-02-28T06:57:31;7.30;;;5.20;;
4359;SDS011;2193;47.980;7.660;2023-02-28T06:59:57;6.75;;;4.80;;
4359;SDS011;2193;47.980;7.660;2023-02-28T07:02:22;6.72;;;4.97;;
4359;SDS011;2193;47.980;7.660;2023-02-28T07:04:48;6.63;;;4.77;;
4359;SDS011;2193;47.980;7.660;2023-02-28T07:07:13;9.73;;;5.20;;
4359;SDS011;2193;47.980;7.660;2023-02-28T07:09:38;6.93;;;5.10;;
4359;SDS011;2193;47.980;7.660;2023-02-28T07:12:04;8.50;;;5.40;;
4359;SDS011;2193;47.980;7.660;2023-02-28T07:14:29;8.50;;;5.37;;
4359;SDS011;2193;47.980;7.660;2023-02-28T07:16:54;6.50;;;5.10;;
4359;SDS011;2193;47.980;7.660;2023-02-28T07:19:19;7.40;;;5.23;;
4359;SDS011;2193;47.980;7.660;2023-02-28T07:21:45;6.10;;;4.83;;
4359;SDS011;2193;47.980;7.660;2023-02-28T07:24:10;7.00;;;4.70;;
4359;SDS011;2193;47.980;7.660;2023-02-28T07:26:35;8.73;;;5.03;;
4359;SDS011;2193;47.980;7.660;2023-02-28T07:29:00;7.20;;;5.30;;
4359;SDS011;2193;47.980;7.660;2023-02-28T07:31:27;9.75;;;4.75;;
4359;SDS011;2193;47.980;7.660;2023-02-28T07:33:52;6.37;;;5.43;;
4359;SDS011;2193;47.980;7.660;2023-02-28T07:36:18;6.32;;;4.95;;
4359;SDS011;2193;47.980;7.660;2023-02-28T07:38:45;6.50;;;4.73;;
4359;SDS011;2193;47.980;7.660;2023-02-28T07:41:12;7.35;;;5.10;;
4359;SDS011;2193;47.980;7.660;2023-02-28T07:43:38;7.80;;;4.90;;
4359;SDS011;2193;47.980;7.660;2023-02-28T07:46:07;9.60;;;6.10;;
4359;SDS011;2193;47.980;7.660;2023-02-28T07:48:33;13.73;;;7.20;;
4359;SDS011;2193;47.980;7.660;2023-02-28T07:50:58;7.63;;;5.57;;
4359;SDS011;2193;47.980;7.660;2023-02-28T07:53:24;6.47;;;5.57;;
4359;SDS011;2193;47.980;7.660;2023-02-28T07:55:49;6.20;;;5.17;;
4359;SDS011;2193;47.980;7.660;2023-02-28T07:58:14;7.53;;;5.20;;
4359;SDS011;2193;47.980;7.660;2023-02-28T08:00:39;8.13;;;5.53;;
4359;SDS011;2193;47.980;7.660;2023-02-28T08:03:04;6.70;;;5.30;;
4359;SDS011;2193;47.980;7.660;2023-02-28T08:05:30;6.27;;;5.43;;
4359;SDS011;2193;47.980;7.660;2023-02-28T08:07:55;9.60;;;5.10;;
4359;SDS011;2193;47.980;7.660;2023-02-28T08:10:21;6.43;;;5.20;;
4359;SDS011;2193;47.980;7.660;2023-02-28T08:12:46;9.17;;;5.90;;
4359;SDS011;2193;47.980;7.660;2023-02-28T08:15:11;12.93;;;5.93;;
4359;SDS011;2193;47.980;7.660;2023-02-28T08:17:37;7.63;;;5.53;;
4359;SDS011;2193;47.980;7.660;2023-02-28T08:20:02;6.63;;;5.40;;
4359;SDS011;2193;47.980;7.660;2023-02-28T08:22:28;7.20;;;5.80;;
4359;SDS011;2193;47.980;7.660;2023-02-28T08:24:54;7.97;;;5.90;;
4359;SDS011;2193;47.980;7.660;2023-02-28T08:27:19;8.10;;;6.20;;
4359;SDS011;2193;47.980;7.660;2023-02-28T08:29:44;9.10;;;6.50;;
4359;SDS011;2193;47.980;7.660;2023-02-28T08:32:09;8.27;;;6.33;;
4359;SDS011;2193;47.980;7.660;2023-02-28T08:34:34;9.30;;;6.20;;
4359;SDS011;2193;47.980;7.660;2023-02-28T08:37:00;8.07;;;6.13;;
4359;SDS011;2193;47.980;7.660;2023-02-28T08:39:25;10.70;;;6.23;;
4359;SDS011;2193;47.980;7.660;2023-02-28T08:41:50;8.67;;;6.40;;
4359;SDS011;2193;47.980;7.660;2023-02-28T08:44:15;8.53;;;6.70;;
4359;SDS011;2193;47.980;7.660;2023-02-28T08:46:40;7.10;;;5.30;;
4359;SDS011;2193;47.980;7.660;2023-02-28T08:49:06;7.63;;;5.67;;
4359;SDS011;2193;47.980;7.660;2023-02-28T08:51:31;8.97;;;6.17;;
4359;SDS011;2193;47.980;7.660;2023-02-28T08:53:58;8.23;;;6.00;;
4359;SDS011;2193;47.980;7.660;2023-02-28T08:56:24;8.48;;;5.97;;
4359;SDS011;2193;47.980;7.660;2023-02-28T08:58:50;9.80;;;6.20;;
4359;SDS011;2193;47.980;7.660;2023-02-28T09:01:16;6.83;;;6.10;;
4359;SDS011;2193;47.980;7.660;2023-02-28T09:03:42;8.63;;;6.43;;
4359;SDS011;2193;47.980;7.660;2023-02-28T09:06:07;11.73;;;5.83;;
4359;SDS011;2193;47.980;7.660;2023-02-28T09:08:33;9.73;;;6.90;;
4359;SDS011;2193;47.980;7.660;2023-02-28T09:10:58;8.60;;;6.50;;
4359;SDS011;2193;47.980;7.660;2023-02-28T09:13:24;9.20;;;6.33;;
4359;SDS011;2193;47.980;7.660;2023-02-28T09:15:50;8.23;;;6.30;;
4359;SDS011;2193;47.980;7.660;2023-02-28T09:18:15;9.50;;;7.07;;
4359;SDS011;2193;47.980;7.660;2023-02-28T09:20:41;8.00;;;6.93;;
4359;SDS011;2193;47.980;7.660;2023-02-28T09:23:07;10.45;;;7.32;;
4359;SDS011;2193;47.980;7.660;2023-02-28T09:25:32;9.50;;;6.70;;
4359;SDS011;2193;47.980;7.660;2023-02-28T09:27:58;8.33;;;6.47;;
4359;SDS011;2193;47.980;7.660;2023-02-28T09:30:23;10.63;;;6.70;;
4359;SDS011;2193;47.980;7.660;2023-02-28T09:32:48;9.63;;;6.97;;
4359;SDS011;2193;47.980;7.660;2023-02-28T09:35:23;10.18;;;6.85;;
4359;SDS011;2193;47.980;7.660;2023-02-28T09:37:52;10.30;;;6.90;;
4359;SDS011;2193;47.980;7.660;2023-02-28T09:40:18;10.45;;;6.97;;
4359;SDS011;2193;47.980;7.660;2023-02-28T09:42:45;10.15;;;7.55;;
4359;SDS011;2193;47.980;7.660;2023-02-28T09:45:33;11.88;;;7.38;;
4359;SDS011;2193;47.980;7.660;2023-02-28T09:48:10;8.95;;;6.90;;
4359;SDS011;2193;47.980;7.660;2023-02-28T09:50:40;13.73;;;6.45;;
4359;SDS011;2193;47.980;7.660;2023-02-28T09:53:39;9.00;;;6.25;;
4359;SDS011;2193;47.980;7.660;2023-02-28T09:55:59;10.52;;;7.30;;
4359;SDS011;2193;47.980;7.660;2023-02-28T09:58:28;9.13;;;6.47;;
4359;SDS011;2193;47.980;7.660;2023-02-28T10:00:58;8.32;;;6.43;;
4359;SDS011;2193;47.980;7.660;2023-02-28T10:03:29;11.25;;;7.40;;
4359;SDS011;2193;47.980;7.660;2023-02-28T10:11:01;9.77;;;7.05;;
4359;SDS011;2193;47.980;7.660;2023-02-28T10:15:58;11.97;;;7.13;;
4359;SDS011;2193;47.980;7.660;2023-02-28T10:18:27;9.75;;;7.43;;
4359;SDS011;2193;47.980;7.660;2023-02-28T10:20:54;13.43;;;8.02;;
4359;SDS011;2193;47.980;7.660;2023-02-28T10:23:21;11.52;;;8.20;;
4359;SDS011;2193;47.980;7.660;2023-02-28T10:26:22;13.73;;;8.68;;
4359;SDS011;2193;47.980;7.660;2023-02-28T10:28:43;12.75;;;7.95;;
4359;SDS011;2193;47.980;7.660;2023-02-28T10:31:11;14.73;;;9.40;;
4359;SDS011;2193;47.980;7.660;2023-02-28T10:33:39;13.55;;;8.07;;
4359;SDS011;2193;47.980;7.660;2023-02-28T10:36:04;19.23;;;9.90;;
4359;SDS011;2193;47.980;7.660;2023-02-28T10:41:03;11.93;;;7.83;;
4359;SDS011;2193;47.980;7.660;2023-02-28T10:43:29;14.07;;;9.32;;
4359;SDS011;2193;47.980;7.660;2023-02-28T10:48:41;17.17;;;9.45;;
4359;SDS011;2193;47.980;7.660;2023-02-28T10:51:11;16.60;;;9.48;;
4359;SDS011;2193;47.980;7.660;2023-02-28T10:53:38;15.68;;;9.27;;
4359;SDS011;2193;47.980;7.660;2023-02-28T10:58:49;19.55;;;10.55;;
4359;SDS011;2193;47.980;7.660;2023-02-28T11:01:20;11.35;;;7.80;;
4359;SDS011;2193;47.980;7.660;2023-02-28T11:03:45;14.18;;;8.27;;
4359;SDS011;2193;47.980;7.660;2023-02-28T11:06:28;13.13;;;8.10;;
4359;SDS011;2193;47.980;7.660;2023-02-28T11:08:55;10.25;;;7.53;;
4359;SDS011;2193;47.980;7.660;2023-02-28T11:11:21;12.35;;;6.82;;
4359;SDS011;2193;47.980;7.660;2023-02-28T11:13:48;11.13;;;7.90;;
4359;SDS011;2193;47.980;7.660;2023-02-28T11:16:15;11.15;;;7.70;;
4359;SDS011;2193;47.980;7.660;2023-02-28T11:18:50;11.43;;;7.60;;
4359;SDS011;2193;47.980;7.660;2023-02-28T11:21:36;9.15;;;6.70;;
4359;SDS011;2193;47.980;7.660;2023-02-28T11:26:41;11.98;;;7.15;;
4359;SDS011;2193;47.980;7.660;2023-02-28T11:29:11;11.60;;;7.20;;
4359;SDS011;2193;47.980;7.660;2023-02-28T11:31:36;14.27;;;8.00;;
4359;SDS011;2193;47.980;7.660;2023-02-28T11:34:11;8.10;;;6.70;;
4359;SDS011;2193;47.980;7.660;2023-02-28T11:36:46;9.50;;;6.93;;
4359;SDS011;2193;47.980;7.660;2023-02-28T11:39:12;9.30;;;7.15;;
4359;SDS011;2193;47.980;7.660;2023-02-28T11:44:18;11.10;;;7.30;;
4359;SDS011;2193;47.980;7.660;2023-02-28T11:56:37;9.75;;;7.45;;
4359;SDS011;2193;47.980;7.660;2023-02-28T11:59:17;9.13;;;7.10;;
4359;SDS011;2193;47.980;7.660;2023-02-28T12:01:54;8.75;;;6.57;;
4359;SDS011;2193;47.980;7.660;2023-02-28T12:04:29;9.60;;;6.95;;
4359;SDS011;2193;47.980;7.660;2023-02-28T12:07:08;11.10;;;7.60;;
4359;SDS011;2193;47.980;7.660;2023-02-28T12:09:43;10.45;;;7.10;;
4359;SDS011;2193;47.980;7.660;2023-02-28T12:22:35;10.48;;;7.32;;
4359;SDS011;2193;47.980;7.660;2023-02-28T12:27:31;18.05;;;7.88;;
4359;SDS011;2193;47.980;7.660;2023-02-28T12:29:58;8.75;;;7.00;;
4359;SDS011;2193;47.980;7.660;2023-02-28T12:37:29;12.75;;;8.45;;
4359;SDS011;2193;47.980;7.660;2023-02-28T12:40:00;9.95;;;7.97;;
4359;SDS011;2193;47.980;7.660;2023-02-28T12:42:27;11.07;;;8.15;;
4359;SDS011;2193;47.980;7.660;2023-02-28T12:44:57;10.88;;;7.60;;
4359;SDS011;2193;47.980;7.660;2023-02-28T12:47:23;12.57;;;8.43;;
4359;SDS011;2193;47.980;7.660;2023-02-28T12:49:50;10.57;;;7.60;;
4359;SDS011;2193;47.980;7.660;2023-02-28T12:52:18;11.95;;;8.05;;
4359;SDS011;2193;47.980;7.660;2023-02-28T12:54:47;11.15;;;7.65;;
4359;SDS011;2193;47.980;7.660;2023-02-28T12:57:24;10.85;;;8.40;;
4359;SDS011;2193;47.980;7.660;2023-02-28T12:59:57;12.07;;;7.65;;
4359;SDS011;2193;47.980;7.660;2023-02-28T13:05:14;14.77;;;8.07;;
4359;SDS011;2193;47.980;7.660;2023-02-28T13:10:38;11.90;;;8.35;;
4359;SDS011;2193;47.980;7.660;2023-02-28T13:13:03;11.38;;;7.20;;
4359;SDS011;2193;47.980;7.660;2023-02-28T13:15:29;11.90;;;7.70;;
4359;SDS011;2193;47.980;7.660;2023-02-28T13:17:55;11.53;;;8.90;;
4359;SDS011;2193;47.980;7.660;2023-02-28T13:20:25;10.93;;;8.00;;
4359;SDS011;2193;47.980;7.660;2023-02-28T13:22:51;11.23;;;7.88;;
4359;SDS011;2193;47.980;7.660;2023-02-28T13:25:49;14.48;;;8.93;;
4359;SDS011;2193;47.980;7.660;2023-02-28T13:28:14;12.60;;;8.65;;
4359;SDS011;2193;47.980;7.660;2023-02-28T13:31:01;13.85;;;9.18;;
4359;SDS011;2193;47.980;7.660;2023-02-28T13:33:35;13.98;;;8.70;;
4359;SDS011;2193;47.980;7.660;2023-02-28T13:38:48;12.98;;;8.70;;
4359;SDS011;2193;47.980;7.660;2023-02-28T13:46:36;14.13;;;8.80;;
4359;SDS011;2193;47.980;7.660;2023-02-28T13:49:25;13.23;;;9.88;;
4359;SDS011;2193;47.980;7.660;2023-02-28T13:59:37;15.00;;;9.57;;
4359;SDS011;2193;47.980;7.660;2023-02-28T14:02:43;15.65;;;9.63;;
4359;SDS011;2193;47.980;7.660;2023-02-28T14:05:05;13.00;;;9.05;;
4359;SDS011;2193;47.980;7.660;2023-02-28T14:07:32;11.75;;;8.88;;
4359;SDS011;2193;47.980;7.660;2023-02-28T14:09:59;16.95;;;9.50;;
4359;SDS011;2193;47.980;7.660;2023-02-28T14:17:58;13.85;;;9.25;;
4359;SDS011;2193;47.980;7.660;2023-02-28T14:20:26;14.50;;;9.13;;
4359;SDS011;2193;47.980;7.660;2023-02-28T14:25:22;14.63;;;9.50;;
4359;SDS011;2193;47.980;7.660;2023-02-28T14:27:49;12.80;;;8.60;;
4359;SDS011;2193;47.980;7.660;2023-02-28T14:30:25;14.05;;;10.10;;
4359;SDS011;2193;47.980;7.660;2023-02-28T14:33:14;15.77;;;9.48;;
4359;SDS011;2193;47.980;7.660;2023-02-28T14:38:19;12.88;;;8.88;;
4359;SDS011;2193;47.980;7.660;2023-02-28T14:40:47;14.40;;;9.02;;
4359;SDS011;2193;47.980;7.660;2023-02-28T14:43:23;13.73;;;10.18;;
4359;SDS011;2193;47.980;7.660;2023-02-28T14:45:53;13.73;;;9.15;;
4359;SDS011;2193;47.980;7.660;2023-02-28T14:48:20;14.27;;;9.57;;
4359;SDS011;2193;47.980;7.660;2023-02-28T14:50:53;16.73;;;10.98;;
4359;SDS011;2193;47.980;7.660;2023-02-28T14:53:19;14.98;;;9.43;;
4359;SDS011;2193;47.980;7.660;2023-02-28T14:55:45;13.13;;;9.13;;
4359;SDS011;2193;47.980;7.660;2023-02-28T15:00:49;14.65;;;10.10;;
4359;SDS011;2193;47.980;7.660;2023-02-28T15:05:55;12.85;;;9.57;;
4359;SDS011;2193;47.980;7.660;2023-02-28T15:08:22;13.85;;;9.77;;
4359;SDS011;2193;47.980;7.660;2023-02-28T15:10:54;14.30;;;9.40;;
4359;SDS011;2193;47.980;7.660;2023-02-28T15:13:20;11.45;;;9.45;;
4359;SDS011;2193;47.980;7.660;2023-02-28T15:18:14;14.13;;;9.47;;
4359;SDS011;2193;47.980;7.660;2023-02-28T15:20:40;14.15;;;9.38;;
4359;SDS011;2193;47.980;7.660;2023-02-28T15:23:07;16.73;;;9.88;;
4359;SDS011;2193;47.980;7.660;2023-02-28T15:25:33;15.18;;;10.20;;
4359;SDS011;2193;47.980;7.660;2023-02-28T15:27:58;13.23;;;9.63;;
4359;SDS011;2193;47.980;7.660;2023-02-28T15:30:25;16.30;;;10.10;;
4359;SDS011;2193;47.980;7.660;2023-02-28T15:33:04;14.77;;;9.35;;
4359;SDS011;2193;47.980;7.660;2023-02-28T15:35:31;16.27;;;9.55;;
4359;SDS011;2193;47.980;7.660;2023-02-28T15:38:01;14.88;;;9.75;;
4359;SDS011;2193;47.980;7.660;2023-02-28T15:40:27;14.55;;;10.38;;
4359;SDS011;2193;47.980;7.660;2023-02-28T15:45:45;13.00;;;8.75;;
4359;SDS011;2193;47.980;7.660;2023-02-28T15:48:13;14.77;;;9.57;;
4359;SDS011;2193;47.980;7.660;2023-02-28T15:50:40;15.15;;;10.15;;
4359;SDS011;2193;47.980;7.660;2023-02-28T15:53:05;14.00;;;9.87;;
4359;SDS011;2193;47.980;7.660;2023-02-28T15:55:37;14.40;;;9.32;;
4359;SDS011;2193;47.980;7.660;2023-02-28T15:58:02;15.60;;;10.47;;
4359;SDS011;2193;47.980;7.660;2023-02-28T16:00:28;13.53;;;9.80;;
4359;SDS011;2193;47.980;7.660;2023-02-28T16:02:54;15.30;;;9.77;;
4359;SDS011;2193;47.980;7.660;2023-02-28T16:07:53;16.30;;;9.85;;
4359;SDS011;2193;47.980;7.660;2023-02-28T16:10:18;12.27;;;9.20;;
4359;SDS011;2193;47.980;7.660;2023-02-28T16:12:43;14.43;;;10.20;;
4359;SDS011;2193;47.980;7.660;2023-02-28T16:15:17;15.60;;;9.77;;
4359;SDS011;2193;47.980;7.660;2023-02-28T16:17:42;14.73;;;9.93;;
4359;SDS011;2193;47.980;7.660;2023-02-28T16:20:18;13.83;;;9.10;;
4359;SDS011;2193;47.980;7.660;2023-02-28T16:22:43;12.13;;;9.82;;
4359;SDS011;2193;47.980;7.660;2023-02-28T16:25:16;15.40;;;10.27;;
4359;SDS011;2193;47.980;7.660;2023-02-28T16:27:41;14.40;;;10.57;;
4359;SDS011;2193;47.980;7.660;2023-02-28T16:30:07;15.87;;;10.33;;
4359;SDS011;2193;47.980;7.660;2023-02-28T16:32:36;13.30;;;9.77;;
4359;SDS011;2193;47.980;7.660;2023-02-28T16:35:01;15.52;;;10.20;;
4359;SDS011;2193;47.980;7.660;2023-02-28T16:37:27;14.63;;;10.43;;
4359;SDS011;2193;47.980;7.660;2023-02-28T16:39:52;16.13;;;10.43;;
4359;SDS011;2193;47.980;7.660;2023-02-28T16:42:27;14.70;;;10.67;;
4359;SDS011;2193;47.980;7.660;2023-02-28T16:44:53;16.05;;;10.55;;
4359;SDS011;2193;47.980;7.660;2023-02-28T16:47:18;16.53;;;11.03;;
4359;SDS011;2193;47.980;7.660;2023-02-28T16:49:44;17.77;;;10.90;;
4359;SDS011;2193;47.980;7.660;2023-02-28T16:52:09;16.20;;;10.00;;
4359;SDS011;2193;47.980;7.660;2023-02-28T16:54:34;14.57;;;10.37;;
4359;SDS011;2193;47.980;7.660;2023-02-28T16:57:00;15.80;;;10.40;;
4359;SDS011;2193;47.980;7.660;2023-02-28T16:59:25;16.00;;;9.97;;
4359;SDS011;2193;47.980;7.660;2023-02-28T17:01:51;18.45;;;11.07;;
4359;SDS011;2193;47.980;7.660;2023-02-28T17:04:17;18.23;;;12.00;;
4359;SDS011;2193;47.980;7.660;2023-02-28T17:06:42;18.17;;;11.70;;
4359;SDS011;2193;47.980;7.660;2023-02-28T17:09:08;19.20;;;12.40;;
4359;SDS011;2193;47.980;7.660;2023-02-28T17:11:40;17.77;;;11.20;;
4359;SDS011;2193;47.980;7.660;2023-02-28T17:14:08;20.27;;;11.23;;
4359;SDS011;2193;47.980;7.660;2023-02-28T17:16:34;18.17;;;11.38;;
4359;SDS011;2193;47.980;7.660;2023-02-28T17:19:01;16.73;;;11.00;;
4359;SDS011;2193;47.980;7.660;2023-02-28T17:21:27;16.38;;;11.45;;
4359;SDS011;2193;47.980;7.660;2023-02-28T17:23:52;17.90;;;11.83;;
4359;SDS011;2193;47.980;7.660;2023-02-28T17:26:18;17.80;;;11.60;;
4359;SDS011;2193;47.980;7.660;2023-02-28T17:28:47;20.55;;;11.27;;